sensor_id;sensor_type;location;lat;lon;timestamp;P1;durP1;ratioP1;P2;durP2;ratioP2
10847;SDS011;5477;48.806;9.154;2023-05-02T00:02:12;4.70;;;4.30;;
10847;SDS011;5477;48.806;9.154;2023-05-02T00:04:40;5.20;;;4.40;;
10847;SDS011;5477;48.806;9.154;2023-05-02T00:07:10;6.17;;;4.60;;
10847;SDS011;5477;48.806;9.154;2023-05-02T00:09:38;5.60;;;4.37;;
10847;SDS011;5477;48.806;9.154;2023-05-02T00:12:06;5.37;;;4.60;;
10847;SDS011;5477;48.806;9.154;2023-05-02T00:14:34;6.23;;;4.33;;
10847;SDS011;5477;48.806;9.154;2023-05-02T00:17:02;4.60;;;4.03;;
10847;SDS011;5477;48.806;9.154;2023-05-02T00:19:30;5.77;;;4.30;;
10847;SDS011;5477;48.806;9.154;2023-05-02T00:21:59;4.87;;;4.37;;
10847;SDS011;5477;48.806;9.154;2023-05-02T00:24:28;4.63;;;4.23;;
10847;SDS011;5477;48.806;9.154;2023-05-02T00:26:56;6.13;;;4.97;;
10847;SDS011;5477;48.806;9.154;2023-05-02T00:29:24;6.30;;;4.30;;
10847;SDS011;5477;48.806;9.154;2023-05-02T00:31:52;4.80;;;4.30;;
10847;SDS011;5477;48.806;9.154;2023-05-02T00:34:20;4.87;;;4.47;;
10847;SDS011;5477;48.806;9.154;2023-05-02T00:36:48;5.03;;;4.53;;
10847;SDS011;5477;48.806;9.154;2023-05-02T00:39:16;5.53;;;4.33;;
10847;SDS011;5477;48.806;9.154;2023-05-02T00:41:45;7.30;;;4.50;;
10847;SDS011;5477;48.806;9.154;2023-05-02T00:44:13;5.00;;;4.10;;
10847;SDS011;5477;48.806;9.154;2023-05-02T00:46:41;6.00;;;4.50;;
10847;SDS011;5477;48.806;9.154;2023-05-02T00:49:09;4.63;;;4.23;;
10847;SDS011;5477;48.806;9.154;2023-05-02T00:51:37;5.20;;;4.70;;
10847;SDS011;5477;48.806;9.154;2023-05-02T00:54:06;5.00;;;4.27;;
10847;SDS011;5477;48.806;9.154;2023-05-02T00:56:34;4.67;;;4.27;;
10847;SDS011;5477;48.806;9.154;2023-05-02T00:59:03;4.87;;;4.37;;
10847;SDS011;5477;48.806;9.154;2023-05-02T01:01:35;6.23;;;4.60;;
10847;SDS011;5477;48.806;9.154;2023-05-02T01:04:20;4.83;;;4.30;;
10847;SDS011;5477;48.806;9.154;2023-05-02T01:07:01;5.27;;;4.77;;
10847;SDS011;5477;48.806;9.154;2023-05-02T01:09:41;4.57;;;4.17;;
10847;SDS011;5477;48.806;9.154;2023-05-02T01:12:22;6.70;;;4.57;;
10847;SDS011;5477;48.806;9.154;2023-05-02T01:14:56;5.83;;;4.83;;
10847;SDS011;5477;48.806;9.154;2023-05-02T01:17:26;5.00;;;4.50;;
10847;SDS011;5477;48.806;9.154;2023-05-02T01:19:58;5.17;;;4.30;;
10847;SDS011;5477;48.806;9.154;2023-05-02T01:22:30;6.70;;;4.60;;
10847;SDS011;5477;48.806;9.154;2023-05-02T01:25:01;6.47;;;4.93;;
10847;SDS011;5477;48.806;9.154;2023-05-02T01:27:42;5.97;;;4.17;;
10847;SDS011;5477;48.806;9.154;2023-05-02T01:30:19;5.13;;;4.43;;
10847;SDS011;5477;48.806;9.154;2023-05-02T01:32:48;6.27;;;4.20;;
10847;SDS011;5477;48.806;9.154;2023-05-02T01:35:20;5.27;;;4.77;;
10847;SDS011;5477;48.806;9.154;2023-05-02T01:37:49;4.80;;;4.40;;
10847;SDS011;5477;48.806;9.154;2023-05-02T01:40:19;7.30;;;4.47;;
10847;SDS011;5477;48.806;9.154;2023-05-02T01:42:51;5.30;;;4.80;;
10847;SDS011;5477;48.806;9.154;2023-05-02T01:45:21;6.07;;;4.70;;
10847;SDS011;5477;48.806;9.154;2023-05-02T01:47:51;7.60;;;4.27;;
10847;SDS011;5477;48.806;9.154;2023-05-02T01:50:22;6.43;;;5.00;;
10847;SDS011;5477;48.806;9.154;2023-05-02T01:52:52;5.17;;;4.67;;
10847;SDS011;5477;48.806;9.154;2023-05-02T01:55:21;5.03;;;4.57;;
10847;SDS011;5477;48.806;9.154;2023-05-02T01:57:52;5.13;;;4.63;;
10847;SDS011;5477;48.806;9.154;2023-05-02T02:00:23;5.67;;;5.17;;
10847;SDS011;5477;48.806;9.154;2023-05-02T02:02:54;5.83;;;4.97;;
10847;SDS011;5477;48.806;9.154;2023-05-02T02:05:24;5.63;;;5.03;;
10847;SDS011;5477;48.806;9.154;2023-05-02T02:07:54;5.20;;;4.70;;
10847;SDS011;5477;48.806;9.154;2023-05-02T02:10:24;5.83;;;4.57;;
10847;SDS011;5477;48.806;9.154;2023-05-02T02:12:57;5.10;;;4.60;;
10847;SDS011;5477;48.806;9.154;2023-05-02T02:15:33;5.33;;;4.83;;
10847;SDS011;5477;48.806;9.154;2023-05-02T02:18:04;6.17;;;4.80;;
10847;SDS011;5477;48.806;9.154;2023-05-02T02:20:36;4.83;;;4.43;;
10847;SDS011;5477;48.806;9.154;2023-05-02T02:23:09;5.57;;;5.07;;
10847;SDS011;5477;48.806;9.154;2023-05-02T02:25:38;5.80;;;5.20;;
10847;SDS011;5477;48.806;9.154;2023-05-02T02:28:07;5.80;;;5.20;;
10847;SDS011;5477;48.806;9.154;2023-05-02T02:30:36;5.47;;;4.93;;
10847;SDS011;5477;48.806;9.154;2023-05-02T02:33:04;5.63;;;5.10;;
10847;SDS011;5477;48.806;9.154;2023-05-02T02:35:33;5.40;;;4.90;;
10847;SDS011;5477;48.806;9.154;2023-05-02T02:38:08;5.43;;;4.93;;
10847;SDS011;5477;48.806;9.154;2023-05-02T02:40:43;6.23;;;5.00;;
10847;SDS011;5477;48.806;9.154;2023-05-02T02:43:17;6.93;;;4.93;;
10847;SDS011;5477;48.806;9.154;2023-05-02T02:45:53;6.00;;;4.90;;
10847;SDS011;5477;48.806;9.154;2023-05-02T02:48:29;6.13;;;5.00;;
10847;SDS011;5477;48.806;9.154;2023-05-02T02:51:05;5.80;;;4.60;;
10847;SDS011;5477;48.806;9.154;2023-05-02T02:53:41;5.30;;;4.80;;
10847;SDS011;5477;48.806;9.154;2023-05-02T02:56:18;5.17;;;4.67;;
10847;SDS011;5477;48.806;9.154;2023-05-02T02:58:53;4.80;;;4.40;;
10847;SDS011;5477;48.806;9.154;2023-05-02T03:01:26;5.43;;;4.77;;
10847;SDS011;5477;48.806;9.154;2023-05-02T03:03:58;5.53;;;5.03;;
10847;SDS011;5477;48.806;9.154;2023-05-02T03:06:28;5.53;;;4.70;;
10847;SDS011;5477;48.806;9.154;2023-05-02T03:08:57;5.40;;;4.87;;
10847;SDS011;5477;48.806;9.154;2023-05-02T03:11:28;5.03;;;4.60;;
10847;SDS011;5477;48.806;9.154;2023-05-02T03:13:57;6.63;;;4.93;;
10847;SDS011;5477;48.806;9.154;2023-05-02T03:16:31;5.17;;;4.63;;
10847;SDS011;5477;48.806;9.154;2023-05-02T03:19:04;6.03;;;4.90;;
10847;SDS011;5477;48.806;9.154;2023-05-02T03:21:33;5.83;;;5.13;;
10847;SDS011;5477;48.806;9.154;2023-05-02T03:24:08;5.20;;;4.70;;
10847;SDS011;5477;48.806;9.154;2023-05-02T03:26:37;5.67;;;4.80;;
10847;SDS011;5477;48.806;9.154;2023-05-02T03:29:07;5.30;;;4.80;;
10847;SDS011;5477;48.806;9.154;2023-05-02T03:31:40;5.37;;;4.87;;
10847;SDS011;5477;48.806;9.154;2023-05-02T03:34:09;7.03;;;4.33;;
10847;SDS011;5477;48.806;9.154;2023-05-02T03:36:37;5.20;;;4.70;;
10847;SDS011;5477;48.806;9.154;2023-05-02T03:39:05;5.30;;;4.70;;
10847;SDS011;5477;48.806;9.154;2023-05-02T03:41:33;5.23;;;4.73;;
10847;SDS011;5477;48.806;9.154;2023-05-02T03:44:05;7.33;;;4.80;;
10847;SDS011;5477;48.806;9.154;2023-05-02T03:46:35;6.17;;;5.57;;
10847;SDS011;5477;48.806;9.154;2023-05-02T03:49:08;5.73;;;5.13;;
10847;SDS011;5477;48.806;9.154;2023-05-02T03:51:38;6.17;;;5.40;;
10847;SDS011;5477;48.806;9.154;2023-05-02T03:54:07;6.77;;;5.17;;
10847;SDS011;5477;48.806;9.154;2023-05-02T03:56:39;5.90;;;4.93;;
10847;SDS011;5477;48.806;9.154;2023-05-02T03:59:28;5.77;;;5.13;;
10847;SDS011;5477;48.806;9.154;2023-05-02T04:02:04;5.80;;;5.20;;
10847;SDS011;5477;48.806;9.154;2023-05-02T04:04:40;5.80;;;5.20;;
10847;SDS011;5477;48.806;9.154;2023-05-02T04:07:12;5.67;;;5.07;;
10847;SDS011;5477;48.806;9.154;2023-05-02T04:09:47;5.10;;;4.60;;
10847;SDS011;5477;48.806;9.154;2023-05-02T04:12:15;6.50;;;4.93;;
10847;SDS011;5477;48.806;9.154;2023-05-02T04:14:46;5.43;;;4.70;;
10847;SDS011;5477;48.806;9.154;2023-05-02T04:17:15;8.27;;;5.17;;
10847;SDS011;5477;48.806;9.154;2023-05-02T04:19:47;6.43;;;5.03;;
10847;SDS011;5477;48.806;9.154;2023-05-02T04:22:18;6.00;;;5.20;;
10847;SDS011;5477;48.806;9.154;2023-05-02T04:24:52;5.43;;;4.93;;
10847;SDS011;5477;48.806;9.154;2023-05-02T04:27:21;6.10;;;4.97;;
10847;SDS011;5477;48.806;9.154;2023-05-02T04:29:50;5.90;;;5.27;;
10847;SDS011;5477;48.806;9.154;2023-05-02T04:32:19;5.87;;;5.27;;
10847;SDS011;5477;48.806;9.154;2023-05-02T04:34:49;5.33;;;4.83;;
10847;SDS011;5477;48.806;9.154;2023-05-02T04:37:18;6.87;;;5.70;;
10847;SDS011;5477;48.806;9.154;2023-05-02T04:39:47;5.90;;;5.40;;
10847;SDS011;5477;48.806;9.154;2023-05-02T04:42:19;6.40;;;5.17;;
10847;SDS011;5477;48.806;9.154;2023-05-02T04:45:13;6.73;;;5.20;;
10847;SDS011;5477;48.806;9.154;2023-05-02T04:47:43;6.20;;;5.60;;
10847;SDS011;5477;48.806;9.154;2023-05-02T04:50:12;5.83;;;5.33;;
10847;SDS011;5477;48.806;9.154;2023-05-02T04:52:40;6.40;;;5.73;;
10847;SDS011;5477;48.806;9.154;2023-05-02T04:55:08;6.90;;;5.60;;
10847;SDS011;5477;48.806;9.154;2023-05-02T04:57:37;6.30;;;5.10;;
10847;SDS011;5477;48.806;9.154;2023-05-02T05:00:09;9.83;;;5.67;;
10847;SDS011;5477;48.806;9.154;2023-05-02T05:02:38;7.80;;;5.50;;
10847;SDS011;5477;48.806;9.154;2023-05-02T05:05:07;7.13;;;5.80;;
10847;SDS011;5477;48.806;9.154;2023-05-02T05:07:37;7.63;;;5.97;;
10847;SDS011;5477;48.806;9.154;2023-05-02T05:10:07;6.70;;;5.77;;
10847;SDS011;5477;48.806;9.154;2023-05-02T05:12:43;6.33;;;5.73;;
10847;SDS011;5477;48.806;9.154;2023-05-02T05:15:12;8.00;;;6.03;;
10847;SDS011;5477;48.806;9.154;2023-05-02T05:17:44;5.90;;;5.37;;
10847;SDS011;5477;48.806;9.154;2023-05-02T05:20:12;7.30;;;6.60;;
10847;SDS011;5477;48.806;9.154;2023-05-02T05:22:42;6.80;;;5.97;;
10847;SDS011;5477;48.806;9.154;2023-05-02T05:25:12;7.47;;;6.43;;
10847;SDS011;5477;48.806;9.154;2023-05-02T05:27:41;10.83;;;6.40;;
10847;SDS011;5477;48.806;9.154;2023-05-02T05:30:10;8.47;;;7.00;;
10847;SDS011;5477;48.806;9.154;2023-05-02T05:32:40;7.20;;;6.33;;
10847;SDS011;5477;48.806;9.154;2023-05-02T05:35:09;6.87;;;6.23;;
10847;SDS011;5477;48.806;9.154;2023-05-02T05:37:39;8.20;;;6.43;;
10847;SDS011;5477;48.806;9.154;2023-05-02T05:40:11;8.20;;;6.90;;
10847;SDS011;5477;48.806;9.154;2023-05-02T05:42:42;7.80;;;6.97;;
10847;SDS011;5477;48.806;9.154;2023-05-02T05:45:17;8.07;;;7.00;;
10847;SDS011;5477;48.806;9.154;2023-05-02T05:47:45;7.90;;;7.17;;
10847;SDS011;5477;48.806;9.154;2023-05-02T05:50:13;7.77;;;7.07;;
10847;SDS011;5477;48.806;9.154;2023-05-02T05:52:43;9.50;;;7.33;;
10847;SDS011;5477;48.806;9.154;2023-05-02T05:55:13;8.43;;;7.63;;
10847;SDS011;5477;48.806;9.154;2023-05-02T05:57:42;10.57;;;7.67;;
10847;SDS011;5477;48.806;9.154;2023-05-02T06:00:10;9.07;;;6.80;;
10847;SDS011;5477;48.806;9.154;2023-05-02T06:02:45;8.63;;;7.40;;
10847;SDS011;5477;48.806;9.154;2023-05-02T06:05:25;8.80;;;7.30;;
10847;SDS011;5477;48.806;9.154;2023-05-02T06:07:53;7.80;;;7.10;;
10847;SDS011;5477;48.806;9.154;2023-05-02T06:10:22;9.70;;;7.90;;
10847;SDS011;5477;48.806;9.154;2023-05-02T06:12:51;10.30;;;8.47;;
10847;SDS011;5477;48.806;9.154;2023-05-02T06:15:24;11.97;;;8.50;;
10847;SDS011;5477;48.806;9.154;2023-05-02T06:17:52;9.23;;;8.00;;
10847;SDS011;5477;48.806;9.154;2023-05-02T06:20:20;9.60;;;8.40;;
10847;SDS011;5477;48.806;9.154;2023-05-02T06:22:48;10.37;;;9.13;;
10847;SDS011;5477;48.806;9.154;2023-05-02T06:25:16;9.97;;;8.93;;
10847;SDS011;5477;48.806;9.154;2023-05-02T06:27:46;10.43;;;9.33;;
10847;SDS011;5477;48.806;9.154;2023-05-02T06:30:14;10.40;;;9.23;;
10847;SDS011;5477;48.806;9.154;2023-05-02T06:32:41;10.00;;;8.87;;
10847;SDS011;5477;48.806;9.154;2023-05-02T06:35:10;11.47;;;9.63;;
10847;SDS011;5477;48.806;9.154;2023-05-02T06:37:38;11.40;;;10.17;;
10847;SDS011;5477;48.806;9.154;2023-05-02T06:40:06;11.07;;;9.87;;
10847;SDS011;5477;48.806;9.154;2023-05-02T06:42:35;11.63;;;10.50;;
10847;SDS011;5477;48.806;9.154;2023-05-02T06:45:05;12.13;;;10.77;;
10847;SDS011;5477;48.806;9.154;2023-05-02T06:47:34;13.47;;;10.80;;
10847;SDS011;5477;48.806;9.154;2023-05-02T06:50:02;13.80;;;12.00;;
10847;SDS011;5477;48.806;9.154;2023-05-02T06:52:30;13.20;;;11.73;;
10847;SDS011;5477;48.806;9.154;2023-05-02T06:54:58;13.17;;;10.93;;
10847;SDS011;5477;48.806;9.154;2023-05-02T06:57:26;14.00;;;11.13;;
10847;SDS011;5477;48.806;9.154;2023-05-02T06:59:54;15.23;;;11.47;;
10847;SDS011;5477;48.806;9.154;2023-05-02T07:02:24;12.87;;;11.53;;
10847;SDS011;5477;48.806;9.154;2023-05-02T07:04:52;13.67;;;11.90;;
10847;SDS011;5477;48.806;9.154;2023-05-02T07:07:20;14.63;;;13.13;;
10847;SDS011;5477;48.806;9.154;2023-05-02T07:09:48;15.53;;;12.67;;
10847;SDS011;5477;48.806;9.154;2023-05-02T07:12:17;14.80;;;13.20;;
10847;SDS011;5477;48.806;9.154;2023-05-02T07:14:46;17.80;;;14.47;;
10847;SDS011;5477;48.806;9.154;2023-05-02T07:17:13;16.33;;;14.10;;
10847;SDS011;5477;48.806;9.154;2023-05-02T07:19:43;15.27;;;13.67;;
10847;SDS011;5477;48.806;9.154;2023-05-02T07:22:11;16.73;;;15.03;;
10847;SDS011;5477;48.806;9.154;2023-05-02T07:24:39;17.47;;;15.67;;
10847;SDS011;5477;48.806;9.154;2023-05-02T07:27:08;16.80;;;14.73;;
10847;SDS011;5477;48.806;9.154;2023-05-02T07:29:36;21.53;;;15.27;;
10847;SDS011;5477;48.806;9.154;2023-05-02T07:32:04;17.13;;;14.93;;
10847;SDS011;5477;48.806;9.154;2023-05-02T07:34:32;19.10;;;16.20;;
10847;SDS011;5477;48.806;9.154;2023-05-02T07:37:02;20.23;;;16.20;;
10847;SDS011;5477;48.806;9.154;2023-05-02T07:39:31;16.97;;;15.00;;
10847;SDS011;5477;48.806;9.154;2023-05-02T07:41:59;18.60;;;16.20;;
10847;SDS011;5477;48.806;9.154;2023-05-02T07:44:29;18.70;;;15.83;;
10847;SDS011;5477;48.806;9.154;2023-05-02T07:46:58;18.57;;;15.67;;
10847;SDS011;5477;48.806;9.154;2023-05-02T07:49:26;19.60;;;17.50;;
10847;SDS011;5477;48.806;9.154;2023-05-02T07:51:54;18.90;;;16.87;;
10847;SDS011;5477;48.806;9.154;2023-05-02T07:54:23;19.10;;;17.00;;
10847;SDS011;5477;48.806;9.154;2023-05-02T07:56:53;18.33;;;16.37;;
10847;SDS011;5477;48.806;9.154;2023-05-02T07:59:23;18.87;;;16.83;;
10847;SDS011;5477;48.806;9.154;2023-05-02T08:01:51;18.63;;;16.13;;
10847;SDS011;5477;48.806;9.154;2023-05-02T08:04:19;22.43;;;17.70;;
10847;SDS011;5477;48.806;9.154;2023-05-02T08:06:47;20.20;;;18.00;;
10847;SDS011;5477;48.806;9.154;2023-05-02T08:09:16;21.40;;;17.33;;
10847;SDS011;5477;48.806;9.154;2023-05-02T08:11:45;21.63;;;17.80;;
10847;SDS011;5477;48.806;9.154;2023-05-02T08:14:13;20.47;;;17.60;;
10847;SDS011;5477;48.806;9.154;2023-05-02T08:16:42;24.13;;;18.43;;
10847;SDS011;5477;48.806;9.154;2023-05-02T08:19:12;25.73;;;20.77;;
10847;SDS011;5477;48.806;9.154;2023-05-02T08:21:40;22.43;;;18.63;;
10847;SDS011;5477;48.806;9.154;2023-05-02T08:24:08;21.03;;;18.67;;
10847;SDS011;5477;48.806;9.154;2023-05-02T08:26:36;23.93;;;18.70;;
10847;SDS011;5477;48.806;9.154;2023-05-02T08:29:05;22.53;;;18.87;;
10847;SDS011;5477;48.806;9.154;2023-05-02T08:31:33;22.00;;;19.47;;
10847;SDS011;5477;48.806;9.154;2023-05-02T08:34:01;25.97;;;19.23;;
10847;SDS011;5477;48.806;9.154;2023-05-02T08:36:29;21.80;;;19.40;;
10847;SDS011;5477;48.806;9.154;2023-05-02T08:38:57;21.33;;;18.80;;
10847;SDS011;5477;48.806;9.154;2023-05-02T08:41:26;22.83;;;19.03;;
10847;SDS011;5477;48.806;9.154;2023-05-02T08:43:56;22.17;;;18.37;;
10847;SDS011;5477;48.806;9.154;2023-05-02T08:46:26;21.83;;;19.03;;
10847;SDS011;5477;48.806;9.154;2023-05-02T08:48:55;21.70;;;18.50;;
10847;SDS011;5477;48.806;9.154;2023-05-02T08:51:25;25.03;;;19.73;;
10847;SDS011;5477;48.806;9.154;2023-05-02T08:53:55;21.83;;;19.13;;
10847;SDS011;5477;48.806;9.154;2023-05-02T08:56:24;23.53;;;18.53;;
10847;SDS011;5477;48.806;9.154;2023-05-02T08:58:52;22.90;;;18.50;;
10847;SDS011;5477;48.806;9.154;2023-05-02T09:01:21;22.17;;;18.07;;
10847;SDS011;5477;48.806;9.154;2023-05-02T09:03:51;20.97;;;17.77;;
10847;SDS011;5477;48.806;9.154;2023-05-02T09:06:21;19.90;;;17.80;;
10847;SDS011;5477;48.806;9.154;2023-05-02T09:08:49;20.40;;;17.73;;
10847;SDS011;5477;48.806;9.154;2023-05-02T09:11:18;23.17;;;18.70;;
10847;SDS011;5477;48.806;9.154;2023-05-02T09:13:47;22.77;;;18.97;;
10847;SDS011;5477;48.806;9.154;2023-05-02T09:16:18;20.83;;;17.73;;
10847;SDS011;5477;48.806;9.154;2023-05-02T09:18:48;20.53;;;17.43;;
10847;SDS011;5477;48.806;9.154;2023-05-02T09:21:19;21.30;;;18.80;;
10847;SDS011;5477;48.806;9.154;2023-05-02T09:23:49;21.13;;;17.70;;
10847;SDS011;5477;48.806;9.154;2023-05-02T09:26:19;22.10;;;19.10;;
10847;SDS011;5477;48.806;9.154;2023-05-02T09:28:48;22.63;;;18.87;;
10847;SDS011;5477;48.806;9.154;2023-05-02T09:31:18;23.03;;;18.87;;
10847;SDS011;5477;48.806;9.154;2023-05-02T09:34:08;22.50;;;19.00;;
10847;SDS011;5477;48.806;9.154;2023-05-02T09:36:38;21.73;;;18.60;;
10847;SDS011;5477;48.806;9.154;2023-05-02T09:39:08;22.57;;;18.73;;
10847;SDS011;5477;48.806;9.154;2023-05-02T09:41:38;23.53;;;19.67;;
10847;SDS011;5477;48.806;9.154;2023-05-02T09:44:08;22.10;;;19.33;;
10847;SDS011;5477;48.806;9.154;2023-05-02T09:46:41;22.63;;;19.70;;
10847;SDS011;5477;48.806;9.154;2023-05-02T09:49:11;23.37;;;19.10;;
10847;SDS011;5477;48.806;9.154;2023-05-02T09:51:40;24.93;;;20.10;;
10847;SDS011;5477;48.806;9.154;2023-05-02T09:54:09;23.60;;;19.07;;
10847;SDS011;5477;48.806;9.154;2023-05-02T09:56:53;23.83;;;18.93;;
10847;SDS011;5477;48.806;9.154;2023-05-02T09:59:22;21.70;;;19.03;;
10847;SDS011;5477;48.806;9.154;2023-05-02T10:01:54;24.07;;;18.03;;
10847;SDS011;5477;48.806;9.154;2023-05-02T10:04:26;19.87;;;17.33;;
10847;SDS011;5477;48.806;9.154;2023-05-02T10:06:55;20.17;;;17.93;;
10847;SDS011;5477;48.806;9.154;2023-05-02T10:09:24;19.53;;;17.43;;
10847;SDS011;5477;48.806;9.154;2023-05-02T10:11:53;20.03;;;17.53;;
10847;SDS011;5477;48.806;9.154;2023-05-02T10:14:22;20.30;;;18.13;;
10847;SDS011;5477;48.806;9.154;2023-05-02T10:16:58;20.03;;;17.50;;
10847;SDS011;5477;48.806;9.154;2023-05-02T10:19:30;19.97;;;16.80;;
10847;SDS011;5477;48.806;9.154;2023-05-02T10:22:08;18.23;;;15.67;;
10847;SDS011;5477;48.806;9.154;2023-05-02T10:24:36;21.47;;;18.17;;
10847;SDS011;5477;48.806;9.154;2023-05-02T10:27:06;18.53;;;16.53;;
10847;SDS011;5477;48.806;9.154;2023-05-02T10:29:34;17.50;;;15.17;;
10847;SDS011;5477;48.806;9.154;2023-05-02T10:32:04;16.77;;;15.03;;
10847;SDS011;5477;48.806;9.154;2023-05-02T10:34:35;18.43;;;15.20;;
10847;SDS011;5477;48.806;9.154;2023-05-02T10:37:04;16.27;;;14.57;;
10847;SDS011;5477;48.806;9.154;2023-05-02T10:39:32;17.40;;;15.70;;
10847;SDS011;5477;48.806;9.154;2023-05-02T10:42:00;15.40;;;13.87;;
10847;SDS011;5477;48.806;9.154;2023-05-02T10:44:31;16.33;;;14.47;;
10847;SDS011;5477;48.806;9.154;2023-05-02T10:47:00;16.33;;;14.57;;
10847;SDS011;5477;48.806;9.154;2023-05-02T10:49:28;16.33;;;14.60;;
10847;SDS011;5477;48.806;9.154;2023-05-02T10:51:58;14.60;;;13.10;;
10847;SDS011;5477;48.806;9.154;2023-05-02T10:54:25;15.23;;;13.00;;
10847;SDS011;5477;48.806;9.154;2023-05-02T10:57:03;16.40;;;13.60;;
10847;SDS011;5477;48.806;9.154;2023-05-02T10:59:33;16.50;;;13.87;;
10847;SDS011;5477;48.806;9.154;2023-05-02T11:02:03;16.43;;;14.70;;
10847;SDS011;5477;48.806;9.154;2023-05-02T11:07:31;16.60;;;13.87;;
10847;SDS011;5477;48.806;9.154;2023-05-02T11:12:51;16.63;;;14.90;;
10847;SDS011;5477;48.806;9.154;2023-05-02T11:18:23;15.00;;;13.47;;
10847;SDS011;5477;48.806;9.154;2023-05-02T11:20:51;19.83;;;14.53;;
10847;SDS011;5477;48.806;9.154;2023-05-02T11:23:21;15.50;;;13.90;;
10847;SDS011;5477;48.806;9.154;2023-05-02T11:25:52;14.67;;;13.07;;
10847;SDS011;5477;48.806;9.154;2023-05-02T11:28:37;15.10;;;13.50;;
10847;SDS011;5477;48.806;9.154;2023-05-02T11:31:08;16.90;;;15.10;;
10847;SDS011;5477;48.806;9.154;2023-05-02T11:33:56;15.10;;;13.50;;
10847;SDS011;5477;48.806;9.154;2023-05-02T11:36:27;16.00;;;14.30;;
10847;SDS011;5477;48.806;9.154;2023-05-02T11:39:00;15.83;;;14.20;;
10847;SDS011;5477;48.806;9.154;2023-05-02T11:41:39;16.60;;;13.80;;
10847;SDS011;5477;48.806;9.154;2023-05-02T11:44:08;20.67;;;15.73;;
10847;SDS011;5477;48.806;9.154;2023-05-02T11:46:36;18.80;;;16.20;;
10847;SDS011;5477;48.806;9.154;2023-05-02T11:49:05;18.90;;;16.87;;
10847;SDS011;5477;48.806;9.154;2023-05-02T11:51:35;17.93;;;15.87;;
10847;SDS011;5477;48.806;9.154;2023-05-02T11:54:05;20.40;;;18.23;;
10847;SDS011;5477;48.806;9.154;2023-05-02T11:56:34;22.27;;;18.27;;
10847;SDS011;5477;48.806;9.154;2023-05-02T11:59:02;21.53;;;17.27;;
10847;SDS011;5477;48.806;9.154;2023-05-02T12:01:32;15.20;;;13.40;;
10847;SDS011;5477;48.806;9.154;2023-05-02T12:04:00;17.53;;;14.90;;
10847;SDS011;5477;48.806;9.154;2023-05-02T12:06:29;17.67;;;15.57;;
10847;SDS011;5477;48.806;9.154;2023-05-02T12:09:08;18.77;;;16.33;;
10847;SDS011;5477;48.806;9.154;2023-05-02T12:11:37;16.93;;;15.23;;
10847;SDS011;5477;48.806;9.154;2023-05-02T12:14:05;16.83;;;14.60;;
10847;SDS011;5477;48.806;9.154;2023-05-02T12:16:33;17.43;;;15.00;;
10847;SDS011;5477;48.806;9.154;2023-05-02T12:19:01;18.33;;;16.07;;
10847;SDS011;5477;48.806;9.154;2023-05-02T12:21:30;18.70;;;16.63;;
10847;SDS011;5477;48.806;9.154;2023-05-02T12:23:59;20.57;;;18.37;;
10847;SDS011;5477;48.806;9.154;2023-05-02T12:26:29;21.33;;;18.57;;
10847;SDS011;5477;48.806;9.154;2023-05-02T12:28:58;22.47;;;17.67;;
10847;SDS011;5477;48.806;9.154;2023-05-02T12:31:28;21.63;;;19.33;;
10847;SDS011;5477;48.806;9.154;2023-05-02T12:33:57;21.43;;;17.90;;
10847;SDS011;5477;48.806;9.154;2023-05-02T12:36:26;21.97;;;17.60;;
10847;SDS011;5477;48.806;9.154;2023-05-02T12:38:55;18.80;;;16.83;;
10847;SDS011;5477;48.806;9.154;2023-05-02T12:41:33;19.47;;;17.50;;
10847;SDS011;5477;48.806;9.154;2023-05-02T12:44:02;20.73;;;18.47;;
10847;SDS011;5477;48.806;9.154;2023-05-02T12:46:31;21.17;;;17.50;;
10847;SDS011;5477;48.806;9.154;2023-05-02T12:49:02;19.93;;;17.40;;
10847;SDS011;5477;48.806;9.154;2023-05-02T12:51:33;19.10;;;17.00;;
10847;SDS011;5477;48.806;9.154;2023-05-02T12:54:01;17.73;;;14.87;;
10847;SDS011;5477;48.806;9.154;2023-05-02T12:56:30;16.37;;;14.00;;
10847;SDS011;5477;48.806;9.154;2023-05-02T12:59:06;20.53;;;16.87;;
10847;SDS011;5477;48.806;9.154;2023-05-02T13:01:35;16.77;;;15.07;;
10847;SDS011;5477;48.806;9.154;2023-05-02T13:04:03;16.43;;;14.83;;
10847;SDS011;5477;48.806;9.154;2023-05-02T13:06:31;18.93;;;17.03;;
10847;SDS011;5477;48.806;9.154;2023-05-02T13:09:02;19.03;;;16.67;;
10847;SDS011;5477;48.806;9.154;2023-05-02T13:11:30;18.48;;;15.63;;
10847;SDS011;5477;48.806;9.154;2023-05-02T13:14:01;18.88;;;15.88;;
10847;SDS011;5477;48.806;9.154;2023-05-02T13:16:31;28.63;;;16.00;;
10847;SDS011;5477;48.806;9.154;2023-05-02T13:19:02;19.03;;;14.20;;
10847;SDS011;5477;48.806;9.154;2023-05-02T13:21:30;17.50;;;14.43;;
10847;SDS011;5477;48.806;9.154;2023-05-02T13:23:58;15.63;;;14.03;;
10847;SDS011;5477;48.806;9.154;2023-05-02T13:26:26;20.67;;;15.93;;
10847;SDS011;5477;48.806;9.154;2023-05-02T13:28:54;17.63;;;15.83;;
10847;SDS011;5477;48.806;9.154;2023-05-02T13:31:23;16.57;;;14.57;;
10847;SDS011;5477;48.806;9.154;2023-05-02T13:33:52;17.20;;;15.40;;
10847;SDS011;5477;48.806;9.154;2023-05-02T13:36:20;15.17;;;13.77;;
10847;SDS011;5477;48.806;9.154;2023-05-02T13:38:49;15.97;;;14.27;;
10847;SDS011;5477;48.806;9.154;2023-05-02T13:41:17;14.57;;;13.07;;
10847;SDS011;5477;48.806;9.154;2023-05-02T13:43:45;13.17;;;11.87;;
10847;SDS011;5477;48.806;9.154;2023-05-02T13:46:13;17.93;;;14.47;;
10847;SDS011;5477;48.806;9.154;2023-05-02T13:48:43;15.20;;;13.60;;
10847;SDS011;5477;48.806;9.154;2023-05-02T13:51:11;15.43;;;13.33;;
10847;SDS011;5477;48.806;9.154;2023-05-02T13:53:39;13.93;;;12.07;;
10847;SDS011;5477;48.806;9.154;2023-05-02T13:56:07;16.57;;;12.30;;
10847;SDS011;5477;48.806;9.154;2023-05-02T13:58:35;13.17;;;11.43;;
10847;SDS011;5477;48.806;9.154;2023-05-02T14:01:03;15.73;;;13.83;;
10847;SDS011;5477;48.806;9.154;2023-05-02T14:03:31;15.47;;;13.87;;
10847;SDS011;5477;48.806;9.154;2023-05-02T14:06:00;17.33;;;14.10;;
10847;SDS011;5477;48.806;9.154;2023-05-02T14:08:28;14.25;;;12.65;;
10847;SDS011;5477;48.806;9.154;2023-05-02T14:10:56;12.68;;;10.25;;
10847;SDS011;5477;48.806;9.154;2023-05-02T14:13:24;10.68;;;9.02;;
10847;SDS011;5477;48.806;9.154;2023-05-02T14:15:53;10.98;;;9.93;;
10847;SDS011;5477;48.806;9.154;2023-05-02T14:18:21;11.43;;;9.32;;
10847;SDS011;5477;48.806;9.154;2023-05-02T14:20:51;9.13;;;8.23;;
10847;SDS011;5477;48.806;9.154;2023-05-02T14:23:20;10.20;;;8.15;;
10847;SDS011;5477;48.806;9.154;2023-05-02T14:25:48;10.15;;;9.15;;
10847;SDS011;5477;48.806;9.154;2023-05-02T14:28:16;10.57;;;9.48;;
10847;SDS011;5477;48.806;9.154;2023-05-02T14:30:44;10.23;;;9.10;;
10847;SDS011;5477;48.806;9.154;2023-05-02T14:33:14;9.82;;;8.82;;
10847;SDS011;5477;48.806;9.154;2023-05-02T14:35:42;10.10;;;8.45;;
10847;SDS011;5477;48.806;9.154;2023-05-02T14:38:10;8.88;;;7.47;;
10847;SDS011;5477;48.806;9.154;2023-05-02T14:40:39;8.63;;;7.60;;
10847;SDS011;5477;48.806;9.154;2023-05-02T14:43:07;7.53;;;6.80;;
10847;SDS011;5477;48.806;9.154;2023-05-02T14:45:39;7.32;;;6.63;;
10847;SDS011;5477;48.806;9.154;2023-05-02T14:48:07;8.30;;;7.07;;
10847;SDS011;5477;48.806;9.154;2023-05-02T14:50:36;6.97;;;6.28;;
10847;SDS011;5477;48.806;9.154;2023-05-02T14:53:05;7.25;;;6.55;;
10847;SDS011;5477;48.806;9.154;2023-05-02T14:55:34;7.10;;;6.40;;
10847;SDS011;5477;48.806;9.154;2023-05-02T14:58:05;7.65;;;6.82;;
10847;SDS011;5477;48.806;9.154;2023-05-02T15:00:34;7.85;;;6.82;;
10847;SDS011;5477;48.806;9.154;2023-05-02T15:03:03;9.65;;;8.65;;
10847;SDS011;5477;48.806;9.154;2023-05-02T15:05:34;10.65;;;9.30;;
10847;SDS011;5477;48.806;9.154;2023-05-02T15:08:03;10.30;;;9.27;;
10847;SDS011;5477;48.806;9.154;2023-05-02T15:10:34;11.90;;;10.18;;
10847;SDS011;5477;48.806;9.154;2023-05-02T15:13:04;11.50;;;8.83;;
10847;SDS011;5477;48.806;9.154;2023-05-02T15:15:33;11.90;;;9.10;;